createdAt,value
2023-02-11T00:00:17.637Z,102381.16
2023-02-11T00:03:03.071Z,102384.59
2023-02-11T00:06:00.321Z,102383.22
2023-02-11T00:08:45.892Z,102384.16
2023-02-11T00:11:30.812Z,102375.59
2023-02-11T00:14:16.398Z,102375.69
2023-02-11T00:17:01.418Z,102378.22
2023-02-11T00:19:52.268Z,102372.25
2023-02-11T00:22:37.106Z,102378.38
2023-02-11T00:25:22.401Z,102389.66
2023-02-11T00:28:07.551Z,102409.56
2023-02-11T00:30:57.646Z,102419.91
2023-02-11T00:33:42.966Z,102434.09
2023-02-11T00:36:30.362Z,102450.41
2023-02-11T00:39:15.610Z,102441.84
2023-02-11T00:42:01.078Z,102447.88
2023-02-11T00:44:46.240Z,102443.50
2023-02-11T00:47:31.098Z,102450.56
2023-02-11T00:50:16.176Z,102450.56
2023-02-11T00:53:01.025Z,102440.25
2023-02-11T00:55:45.759Z,102456.66
2023-02-11T00:58:31.096Z,102443.88
2023-02-11T01:01:16.313Z,102450.69
2023-02-11T01:04:01.405Z,102454.06
2023-02-11T01:06:46.132Z,102461.09
2023-02-11T01:09:31.431Z,102449.22
2023-02-11T01:12:16.202Z,102444.81
2023-02-11T01:15:01.066Z,102431.84
2023-02-11T01:17:46.155Z,102429.22
2023-02-11T01:20:31.113Z,102428.34
2023-02-11T01:23:16.533Z,102430.09
2023-02-11T01:26:01.949Z,102427.47
2023-02-11T01:28:47.074Z,102417.91
2023-02-11T01:31:32.959Z,102428.19
2023-02-11T01:34:18.092Z,102436.06
2023-02-11T01:37:03.236Z,102424.91
2023-02-11T01:39:48.189Z,102409.47
2023-02-11T01:42:34.017Z,102398.09
2023-02-11T01:45:43.737Z,102375.66
2023-02-11T01:48:34.140Z,102379.94
2023-02-11T01:51:25.077Z,102377.47
2023-02-11T01:54:33.411Z,102374.84
2023-02-11T01:57:25.439Z,102364.56
2023-02-11T02:00:15.420Z,102374.88
2023-02-11T02:03:05.210Z,102382.72
2023-02-11T02:06:07.817Z,102379.28
2023-02-11T02:09:03.421Z,102371.53
2023-02-11T02:11:48.418Z,102374.78
2023-02-11T02:14:34.147Z,102377.44
2023-02-11T02:17:32.367Z,102373.88
2023-02-11T02:20:31.733Z,102370.53
2023-02-11T02:23:29.557Z,102375.66
2023-02-11T02:26:52.161Z,102365.31
2023-02-11T02:30:05.103Z,102366.19
2023-02-11T02:33:24.925Z,102361.94
2023-02-11T02:36:22.664Z,102372.09
2023-02-11T02:39:29.427Z,102365.31
2023-02-11T02:42:16.305Z,102349.81
2023-02-11T02:45:01.762Z,102351.53
2023-02-11T02:47:46.638Z,102351.44
2023-02-11T02:50:35.953Z,102344.53
2023-02-11T02:53:40.166Z,102347.06
2023-02-11T02:56:55.240Z,102332.53
2023-02-11T03:00:11.389Z,102334.28
2023-02-11T03:03:27.473Z,102324.69
2023-02-11T03:06:23.317Z,102335.28
2023-02-11T03:09:28.336Z,102325.53
2023-02-11T03:12:15.329Z,102329.16
2023-02-11T03:15:04.014Z,102331.06
2023-02-11T03:17:53.849Z,102330.06
2023-02-11T03:20:43.647Z,102323.19
2023-02-11T03:23:34.441Z,102329.09
2023-02-11T03:26:32.711Z,102325.72
2023-02-11T03:29:33.312Z,102319.72
2023-02-11T03:32:34.859Z,102311.97
2023-02-11T03:35:48.735Z,102316.38
2023-02-11T03:38:39.699Z,102310.28
2023-02-11T03:41:25.710Z,102310.97
2023-02-11T03:44:14.166Z,102311.88
2023-02-11T03:47:02.757Z,102312.97
2023-02-11T03:49:52.186Z,102328.50
2023-02-11T03:52:38.192Z,102326.75
2023-02-11T03:55:25.865Z,102325.09
2023-02-11T03:58:11.067Z,102329.41
2023-02-11T04:00:56.166Z,102318.28
2023-02-11T04:03:41.627Z,102325.16
2023-02-11T04:06:26.295Z,102323.38
2023-02-11T04:09:11.173Z,102333.91
2023-02-11T04:11:56.068Z,102333.03
2023-02-11T04:14:40.908Z,102334.78
2023-02-11T04:17:26.653Z,102324.41
2023-02-11T04:20:11.819Z,102329.78
2023-02-11T04:22:57.318Z,102326.44
2023-02-11T04:25:42.640Z,102326.50
2023-02-11T04:28:29.395Z,102329.84
2023-02-11T04:31:14.453Z,102324.75
2023-02-11T04:33:59.650Z,102324.00
2023-02-11T04:36:44.484Z,102316.22
2023-02-11T04:39:29.332Z,102310.25
2023-02-11T04:42:14.399Z,102312.75
2023-02-11T04:44:59.501Z,102315.38
2023-02-11T04:47:44.729Z,102312.75
2023-02-11T04:50:30.037Z,102309.28
2023-02-11T04:53:14.821Z,102308.47
2023-02-11T04:55:59.716Z,102302.44
2023-02-11T04:58:45.014Z,102299.88
2023-02-11T05:01:30.417Z,102306.84
2023-02-11T05:04:15.801Z,102305.22
2023-02-11T05:07:00.820Z,102303.47
2023-02-11T05:09:45.711Z,102299.19
2023-02-11T05:12:30.832Z,102291.44
2023-02-11T05:15:16.119Z,102297.44
2023-02-11T05:18:01.007Z,102300.72
2023-02-11T05:20:45.900Z,102300.94
2023-02-11T05:23:30.910Z,102293.34
2023-02-11T05:26:16.121Z,102310.53
2023-02-11T05:29:01.585Z,102296.63
2023-02-11T05:31:46.464Z,102295.81
2023-02-11T05:34:31.325Z,102289.84
2023-02-11T05:37:16.301Z,102292.41
2023-02-11T05:40:01.840Z,102298.53
2023-02-11T05:42:46.579Z,102295.81
2023-02-11T05:45:31.659Z,102286.47
2023-02-11T05:48:16.855Z,102289.03
2023-02-11T05:51:01.916Z,102284.59
2023-02-11T05:53:47.073Z,102288.97
2023-02-11T05:56:31.864Z,102283.91
2023-02-11T05:59:17.792Z,102278.59
2023-02-11T06:02:02.648Z,102285.56
2023-02-11T06:04:48.252Z,102277.72
2023-02-11T06:07:33.146Z,102281.19
2023-02-11T06:10:18.457Z,102279.59
2023-02-11T06:13:03.901Z,102271.97
2023-02-11T06:15:59.827Z,102276.16
2023-02-11T06:18:45.158Z,102276.22
2023-02-11T06:21:42.849Z,102267.66
2023-02-11T06:24:54.690Z,102271.84
2023-02-11T06:27:33.835Z,102269.38
2023-02-11T06:30:19.465Z,102260.69
2023-02-11T06:33:04.918Z,102265.88
2023-02-11T06:35:50.898Z,102270.31
2023-02-11T06:38:36.491Z,102267.81
2023-02-11T06:41:21.626Z,102265.13
2023-02-11T06:44:07.032Z,102263.44
2023-02-11T06:46:53.187Z,102256.50
2023-02-11T06:49:38.314Z,102271.22
2023-02-11T06:52:24.605Z,102270.47
2023-02-11T06:55:09.745Z,102279.88
2023-02-11T06:57:54.648Z,102279.88
2023-02-11T07:00:40.196Z,102273.81
2023-02-11T07:03:25.284Z,102293.69
2023-02-11T07:06:14.494Z,102289.47
2023-02-11T07:08:59.666Z,102295.41
2023-02-11T07:11:45.424Z,102273.19
2023-02-11T07:14:30.609Z,102270.50
2023-02-11T07:17:15.866Z,102266.22
2023-02-11T07:20:00.770Z,102274.88
2023-02-11T07:22:45.590Z,102278.28
2023-02-11T07:25:31.646Z,102268.91
2023-02-11T07:28:16.791Z,102270.59
2023-02-11T07:31:09.247Z,102274.88
2023-02-11T07:33:57.252Z,102281.91
2023-02-11T07:36:44.108Z,102277.59
2023-02-11T07:39:29.407Z,102281.94
2023-02-11T07:42:14.601Z,102293.13
2023-02-11T07:44:59.424Z,102288.06
2023-02-11T07:47:44.809Z,102294.03
2023-02-11T07:50:29.926Z,102307.91
2023-02-11T07:53:15.348Z,102314.81
2023-02-11T07:56:00.995Z,102316.63
2023-02-11T07:58:46.371Z,102321.75
2023-02-11T08:01:32.208Z,102313.16
2023-02-11T08:04:19.761Z,102316.56
2023-02-11T08:07:04.987Z,102308.75
2023-02-11T08:09:50.149Z,102314.81
2023-02-11T08:12:35.469Z,102300.97
2023-02-11T08:15:20.328Z,102308.78
2023-02-11T08:18:05.390Z,102312.16
2023-02-11T08:20:50.769Z,102309.72
2023-02-11T08:23:37.389Z,102314.06
2023-02-11T08:26:26.101Z,102307.03
2023-02-11T08:29:13.000Z,102300.19
2023-02-11T08:31:58.069Z,102305.28
2023-02-11T08:34:43.248Z,102305.28
2023-02-11T08:37:28.070Z,102299.34
2023-02-11T08:40:12.944Z,102298.56
2023-02-11T08:42:57.774Z,102303.69
2023-02-11T08:45:42.811Z,102305.63
2023-02-11T08:48:29.007Z,102300.25
2023-02-11T08:51:20.366Z,102297.69
2023-02-11T08:54:09.603Z,102303.81
2023-02-11T08:56:54.525Z,102314.31
2023-02-11T08:59:40.758Z,102313.41
2023-02-11T09:02:26.165Z,102314.31
2023-02-11T09:05:12.426Z,102336.78
2023-02-11T09:07:57.613Z,102352.38
2023-02-11T09:10:42.848Z,102355.91
2023-02-11T09:13:28.579Z,102350.72
2023-02-11T09:16:22.458Z,102359.31
2023-02-11T09:19:07.111Z,102350.63
2023-02-11T09:21:52.334Z,102358.38
2023-02-11T09:24:38.017Z,102360.09
2023-02-11T09:27:23.321Z,102361.88
2023-02-11T09:30:08.520Z,102370.47
2023-02-11T09:32:54.080Z,102380.88
2023-02-11T09:35:39.518Z,102383.41
2023-02-11T09:38:24.678Z,102375.66
2023-02-11T09:41:35.263Z,102374.84
2023-02-11T09:44:24.191Z,102375.78
2023-02-11T09:47:31.749Z,102371.44
2023-02-11T09:50:24.004Z,102377.63
2023-02-11T09:53:42.290Z,102380.91
2023-02-11T09:56:28.217Z,102379.09
2023-02-11T09:59:16.401Z,102381.69
2023-02-11T10:02:12.686Z,102390.34
2023-02-11T10:05:34.010Z,102388.59
2023-02-11T10:08:32.827Z,102391.38
2023-02-11T10:11:31.577Z,102386.06
2023-02-11T10:14:48.773Z,102388.66
2023-02-11T10:18:07.788Z,102395.69
2023-02-11T10:21:20.013Z,102396.44
2023-02-11T10:24:12.153Z,102388.78
2023-02-11T10:26:59.452Z,102393.13
2023-02-11T10:30:02.589Z,102395.84
2023-02-11T10:33:11.404Z,102392.44
2023-02-11T10:35:56.392Z,102396.72
2023-02-11T10:38:45.136Z,102413.19
2023-02-11T10:41:37.712Z,102413.13
2023-02-11T10:44:29.514Z,102418.38
2023-02-11T10:47:21.874Z,102414.88
2023-02-11T10:50:22.187Z,102412.34
2023-02-11T10:53:17.211Z,102415.84
2023-02-11T10:56:04.000Z,102418.50
2023-02-11T10:59:01.105Z,102406.41
2023-02-11T11:02:07.746Z,102401.16
2023-02-11T11:04:57.838Z,102407.19
2023-02-11T11:07:56.576Z,102396.78
2023-02-11T11:11:07.382Z,102403.03
2023-02-11T11:13:52.156Z,102413.22
2023-02-11T11:16:37.272Z,102422.88
2023-02-11T11:19:27.712Z,102411.66
2023-02-11T11:22:22.556Z,102417.72
2023-02-11T11:25:30.291Z,102415.25
2023-02-11T11:28:27.662Z,102420.38
2023-02-11T11:31:26.684Z,102423.06
2023-02-11T11:34:23.099Z,102420.53
2023-02-11T11:37:23.068Z,102415.28
2023-02-11T11:40:24.444Z,102416.19
2023-02-11T11:43:15.411Z,102412.81
2023-02-11T11:46:01.000Z,102404.91
2023-02-11T11:48:49.216Z,102407.63
2023-02-11T11:51:41.663Z,102421.50
2023-02-11T11:54:28.707Z,102421.53
2023-02-11T11:57:21.065Z,102425.06
2023-02-11T12:00:15.484Z,102427.69
2023-02-11T12:03:28.511Z,102431.09
2023-02-11T12:06:35.493Z,102424.31
2023-02-11T12:09:39.166Z,102431.19
2023-02-11T12:12:35.874Z,102427.88
2023-02-11T12:15:43.730Z,102422.56
2023-02-11T12:19:01.920Z,102430.41
2023-02-11T12:22:20.262Z,102438.13
2023-02-11T12:25:26.325Z,102438.25
2023-02-11T12:28:40.921Z,102440.81
2023-02-11T12:31:44.055Z,102440.81
2023-02-11T12:35:09.744Z,102440.88
2023-02-11T12:38:24.533Z,102442.53
2023-02-11T12:42:03.429Z,102439.19
2023-02-11T12:45:14.682Z,102440.06
2023-02-11T12:48:35.909Z,102439.28
2023-02-11T12:51:43.922Z,102432.31
2023-02-11T12:54:40.016Z,102434.03
2023-02-11T12:57:30.952Z,102436.69
2023-02-11T13:00:23.783Z,102441.88
2023-02-11T13:03:24.111Z,102443.56
2023-02-11T13:06:17.721Z,102434.25
2023-02-11T13:09:06.479Z,102440.19
2023-02-11T13:11:56.245Z,102440.28
2023-02-11T13:14:41.900Z,102438.44
2023-02-11T13:17:36.918Z,102438.44
2023-02-11T13:20:33.377Z,102421.28
2023-02-11T13:23:44.799Z,102425.56
2023-02-11T13:26:39.375Z,102409.19
2023-02-11T13:30:04.596Z,102424.72
2023-02-11T13:32:55.490Z,102440.28
2023-02-11T13:35:52.974Z,102433.41
2023-02-11T13:38:39.098Z,102434.28
2023-02-11T13:41:29.892Z,102432.53
2023-02-11T13:44:23.960Z,102443.72
2023-02-11T13:47:27.478Z,102441.16
2023-02-11T13:50:25.128Z,102455.75
2023-02-11T13:53:10.046Z,102456.72
2023-02-11T13:56:12.090Z,102451.50
2023-02-11T13:59:02.413Z,102452.53
2023-02-11T14:02:10.451Z,102460.31
2023-02-11T14:05:27.612Z,102460.25
2023-02-11T14:08:39.409Z,102451.69
2023-02-11T14:11:27.641Z,102452.53
2023-02-11T14:14:15.453Z,102459.53
2023-02-11T14:17:00.697Z,102458.63
2023-02-11T14:19:47.904Z,102454.28
2023-02-11T14:22:49.388Z,102464.78
2023-02-11T14:25:37.048Z,102463.13
2023-02-11T14:28:27.305Z,102470.09
2023-02-11T14:31:18.384Z,102480.44
2023-02-11T14:34:39.889Z,102476.25
2023-02-11T14:38:02.581Z,102483.91
2023-02-11T14:41:11.538Z,102484.72
2023-02-11T14:44:00.346Z,102471.75
2023-02-11T14:46:48.557Z,102483.88
2023-02-11T14:49:38.601Z,102483.78
2023-02-11T14:52:31.720Z,102494.25
2023-02-11T14:55:34.113Z,102494.28
2023-02-11T14:58:25.139Z,102502.88
2023-02-11T15:01:28.310Z,102495.91
2023-02-11T15:04:28.422Z,102504.78
2023-02-11T15:07:15.343Z,102506.34
2023-02-11T15:10:00.639Z,102501.19
2023-02-11T15:12:49.869Z,102510.72
2023-02-11T15:15:37.864Z,102511.56
2023-02-11T15:18:37.835Z,102514.13
2023-02-11T15:21:29.863Z,102522.78
2023-02-11T15:24:31.363Z,102519.47
2023-02-11T15:27:18.301Z,102530.63
2023-02-11T15:30:23.639Z,102522.00
2023-02-11T15:33:23.145Z,102530.63
2023-02-11T15:36:13.799Z,102528.94
2023-02-11T15:39:19.124Z,102528.94
2023-02-11T15:42:28.047Z,102518.50
2023-02-11T15:45:16.449Z,102510.88
2023-02-11T15:48:20.365Z,102513.31
2023-02-11T15:51:29.721Z,102515.19
2023-02-11T15:54:19.563Z,102512.50
2023-02-11T15:57:10.748Z,102521.28
2023-02-11T15:59:56.224Z,102523.75
2023-02-11T16:02:45.268Z,102518.66
2023-02-11T16:05:33.189Z,102530.69
2023-02-11T16:08:26.171Z,102541.22
2023-02-11T16:11:26.855Z,102542.97
2023-02-11T16:14:36.872Z,102529.91
2023-02-11T16:17:28.500Z,102532.44
2023-02-11T16:20:20.318Z,102533.34
2023-02-11T16:23:09.874Z,102532.53
2023-02-11T16:26:01.307Z,102535.16
2023-02-11T16:28:49.388Z,102533.44
2023-02-11T16:31:38.351Z,102528.19
2023-02-11T16:34:27.559Z,102542.91
2023-02-11T16:37:12.663Z,102539.53
2023-02-11T16:40:00.019Z,102539.53
2023-02-11T16:42:45.108Z,102545.50
2023-02-11T16:45:32.169Z,102548.13
2023-02-11T16:48:21.630Z,102551.63
2023-02-11T16:51:09.522Z,102546.38
2023-02-11T16:53:54.665Z,102561.06
2023-02-11T16:56:39.875Z,102563.56
2023-02-11T16:59:25.481Z,102561.97
2023-02-11T17:02:31.159Z,102571.50
2023-02-11T17:05:22.906Z,102578.41
2023-02-11T17:08:09.908Z,102574.94
2023-02-11T17:10:58.333Z,102575.84
2023-02-11T17:13:45.634Z,102580.97
2023-02-11T17:16:30.932Z,102579.34
2023-02-11T17:19:19.551Z,102582.00
2023-02-11T17:22:04.994Z,102592.31
2023-02-11T17:24:49.923Z,102612.28
2023-02-11T17:27:35.200Z,102598.50
2023-02-11T17:30:20.219Z,102613.09
2023-02-11T17:33:05.893Z,102604.44
2023-02-11T17:35:53.582Z,102606.22
2023-02-11T17:38:38.876Z,102607.91
2023-02-11T17:41:23.943Z,102607.09
2023-02-11T17:44:12.617Z,102612.38
2023-02-11T17:46:57.441Z,102613.19
2023-02-11T17:49:43.175Z,102628.66
2023-02-11T17:52:29.485Z,102637.50
2023-02-11T17:55:14.526Z,102650.41
2023-02-11T17:58:00.366Z,102652.16
2023-02-11T18:00:45.648Z,102652.16
2023-02-11T18:03:31.792Z,102653.81
2023-02-11T18:06:17.792Z,102653.72
2023-02-11T18:09:04.700Z,102657.38
2023-02-11T18:11:52.387Z,102671.84
2023-02-11T18:14:41.145Z,102671.00
2023-02-11T18:17:26.448Z,102669.38
2023-02-11T18:20:11.683Z,102677.19
2023-02-11T18:22:56.845Z,102675.22
2023-02-11T18:25:45.642Z,102668.41
2023-02-11T18:28:31.319Z,102658.91
2023-02-11T18:31:17.217Z,102663.19
2023-02-11T18:34:07.203Z,102671.03
2023-02-11T18:36:54.473Z,102671.84
2023-02-11T18:39:40.708Z,102674.34
2023-02-11T18:42:28.584Z,102666.78
2023-02-11T18:45:15.006Z,102676.31
2023-02-11T18:48:03.504Z,102670.94
2023-02-11T18:50:48.989Z,102684.84
2023-02-11T18:53:36.727Z,102684.75
2023-02-11T18:56:24.602Z,102689.03
2023-02-11T18:59:09.892Z,102698.63
2023-02-11T19:01:54.724Z,102692.63
2023-02-11T19:04:40.300Z,102694.38
2023-02-11T19:07:25.595Z,102715.06
2023-02-11T19:10:14.111Z,102733.41
2023-02-11T19:13:02.364Z,102728.94
2023-02-11T19:15:47.758Z,102722.91
2023-02-11T19:18:32.529Z,102709.06
2023-02-11T19:21:17.702Z,102716.97
2023-02-11T19:24:08.399Z,102718.53
2023-02-11T19:26:57.197Z,102721.13
2023-02-11T19:29:43.017Z,102714.19
2023-02-11T19:32:28.356Z,102716.88
2023-02-11T19:35:13.492Z,102721.22
2023-02-11T19:37:59.689Z,102722.00
2023-02-11T19:40:45.005Z,102725.59
2023-02-11T19:43:30.412Z,102728.84
2023-02-11T19:46:15.770Z,102728.75
2023-02-11T19:49:04.375Z,102728.88
2023-02-11T19:51:56.463Z,102733.28
2023-02-11T19:54:42.060Z,102738.38
2023-02-11T19:57:27.352Z,102747.31
2023-02-11T20:00:14.121Z,102747.09
2023-02-11T20:02:59.510Z,102745.41
2023-02-11T20:05:47.003Z,102755.03
2023-02-11T20:08:33.510Z,102754.94
2023-02-11T20:11:19.933Z,102753.06
2023-02-11T20:14:06.681Z,102753.22
2023-02-11T20:16:51.820Z,102754.91
2023-02-11T20:19:38.181Z,102755.78
2023-02-11T20:22:23.654Z,102753.22
2023-02-11T20:25:10.724Z,102761.84
2023-02-11T20:27:56.510Z,102764.47
2023-02-11T20:30:44.051Z,102767.84
2023-02-11T20:33:33.468Z,102783.41
2023-02-11T20:36:30.638Z,102774.84
2023-02-11T20:39:17.093Z,102779.19
2023-02-11T20:42:03.745Z,102785.22
2023-02-11T20:44:50.423Z,102792.97
2023-02-11T20:47:37.888Z,102797.38
2023-02-11T20:50:24.295Z,102795.69
2023-02-11T20:53:10.647Z,102804.28
2023-02-11T20:55:57.181Z,102793.84
2023-02-11T20:58:43.333Z,102795.59
2023-02-11T21:01:37.087Z,102797.53
2023-02-11T21:04:28.277Z,102800.81
2023-02-11T21:07:13.273Z,102805.94
2023-02-11T21:09:58.593Z,102806.78
2023-02-11T21:12:51.732Z,102803.47
2023-02-11T21:15:36.723Z,102804.25
2023-02-11T21:18:23.450Z,102818.06
2023-02-11T21:21:10.087Z,102826.81
2023-02-11T21:23:56.072Z,102829.47
2023-02-11T21:26:43.432Z,102829.47
2023-02-11T21:29:29.969Z,102837.94
2023-02-11T21:32:17.884Z,102831.22
2023-02-11T21:35:07.053Z,102831.22
2023-02-11T21:37:53.497Z,102835.38
2023-02-11T21:40:38.880Z,102832.06
2023-02-11T21:43:27.189Z,102829.44
2023-02-11T21:46:14.894Z,102830.31
2023-02-11T21:49:01.763Z,102827.59
2023-02-11T21:51:46.605Z,102832.81
2023-02-11T21:54:32.151Z,102834.47
2023-02-11T21:57:19.217Z,102843.13
2023-02-11T22:00:07.726Z,102844.09
2023-02-11T22:02:54.159Z,102848.56
2023-02-11T22:05:41.065Z,102845.00
2023-02-11T22:08:26.380Z,102852.69
2023-02-11T22:11:12.872Z,102850.97
2023-02-11T22:13:59.479Z,102856.13
2023-02-11T22:16:46.259Z,102857.13
2023-02-11T22:19:34.844Z,102863.06
2023-02-11T22:22:19.749Z,102865.75
2023-02-11T22:25:04.757Z,102878.66
2023-02-11T22:27:49.782Z,102874.47
2023-02-11T22:30:34.826Z,102875.16
2023-02-11T22:33:19.917Z,102873.47
2023-02-11T22:36:08.489Z,102880.38
2023-02-11T22:38:54.831Z,102880.34
2023-02-11T22:41:43.074Z,102883.88
2023-02-11T22:44:28.186Z,102878.66
2023-02-11T22:47:13.446Z,102882.28
2023-02-11T22:49:58.360Z,102879.53
2023-02-11T22:52:43.148Z,102887.16
2023-02-11T22:55:28.023Z,102892.50
2023-02-11T22:58:13.083Z,102892.50
2023-02-11T23:00:58.283Z,102897.69
2023-02-11T23:03:43.407Z,102896.75
2023-02-11T23:06:28.529Z,102908.97
2023-02-11T23:09:13.633Z,102915.00
2023-02-11T23:11:58.562Z,102916.69
2023-02-11T23:14:43.989Z,102924.41
2023-02-11T23:17:29.151Z,102913.00
2023-02-11T23:20:14.664Z,102916.75
2023-02-11T23:22:59.704Z,102923.59
2023-02-11T23:25:44.882Z,102916.63
2023-02-11T23:28:30.259Z,102929.66
2023-02-11T23:31:30.978Z,102933.25
2023-02-11T23:34:17.112Z,102928.94
2023-02-11T23:37:02.590Z,102933.13
2023-02-11T23:39:47.425Z,102930.47
2023-02-11T23:42:32.480Z,102937.44
2023-02-11T23:45:17.319Z,102936.53
2023-02-11T23:48:02.205Z,102941.81
2023-02-11T23:50:47.046Z,102941.91
2023-02-11T23:53:32.082Z,102945.41
2023-02-11T23:56:20.595Z,102952.19
2023-02-11T23:59:05.640Z,102955.53
